Time;durP1;ratioP1;P1;durP2;ratioP2;P2;SDS_P1;SDS_P2;PMS_P1;PMS_P2;Temp;Humidity;BMP_temperature;BMP_pressure;BME280_temperature;BME280_humidity;BME280_pressure;Samples;Min_cycle;Max_cycle;Signal;HPM_P1;HPM_P2
2023/05/12 00:00:38;;;;;;;11.80;7.47;;;12.10;99.90;;;;;;5052114;28;20033;-71
2023/05/12 00:03:04;;;;;;;12.65;8.27;;;12.10;99.90;;;;;;5051099;28;20098;-71
2023/05/12 00:05:30;;;;;;;14.27;8.35;;;12.20;99.90;;;;;;5068005;28;20480;-72
2023/05/12 00:07:55;;;;;;;16.08;10.15;;;12.10;99.90;;;;;;5053091;28;20123;-71
2023/05/12 00:10:21;;;;;;;13.52;9.00;;;12.10;99.90;;;;;;5051805;28;20060;-71
2023/05/12 00:12:47;;;;;;;15.45;10.27;;;12.10;99.90;;;;;;5044403;28;20445;-71
2023/05/12 00:15:12;;;;;;;17.02;11.48;;;12.20;99.90;;;;;;5032962;28;20040;-71
2023/05/12 00:17:38;;;;;;;19.85;12.07;;;12.20;99.90;;;;;;5048511;28;20049;-71
2023/05/12 00:20:05;;;;;;;18.98;12.27;;;12.10;99.90;;;;;;5052905;28;20033;-72
2023/05/12 00:22:30;;;;;;;21.00;13.82;;;12.10;99.90;;;;;;5047080;28;20080;-72
2023/05/12 00:24:56;;;;;;;20.85;13.48;;;12.00;99.90;;;;;;5033070;28;20067;-72
2023/05/12 00:27:22;;;;;;;25.10;15.13;;;12.10;99.90;;;;;;5032520;28;20037;-71
2023/05/12 00:29:47;;;;;;;24.15;14.40;;;12.10;99.90;;;;;;5031676;28;20049;-71
2023/05/12 00:32:13;;;;;;;22.05;14.23;;;12.10;99.90;;;;;;5032027;28;20063;-71
2023/05/12 00:34:38;;;;;;;24.10;14.82;;;12.10;99.90;;;;;;5032906;28;20041;-71
2023/05/12 00:37:05;;;;;;;24.70;15.13;;;12.00;99.90;;;;;;5043267;28;20080;-71
2023/05/12 00:39:30;;;;;;;24.52;14.80;;;12.00;99.90;;;;;;5056666;28;20098;-71
2023/05/12 00:41:57;;;;;;;24.20;15.02;;;12.10;99.90;;;;;;5054507;28;20037;-71
2023/05/12 00:44:23;;;;;;;27.25;15.75;;;12.10;99.90;;;;;;5037007;28;20108;-71
2023/05/12 00:46:49;;;;;;;29.02;16.20;;;12.10;99.90;;;;;;5049540;28;20461;-71
2023/05/12 00:49:15;;;;;;;24.98;15.93;;;12.10;99.90;;;;;;5056763;28;20413;-71
2023/05/12 00:51:42;;;;;;;26.10;15.60;;;12.10;99.90;;;;;;5050977;28;20060;-71
2023/05/12 00:54:07;;;;;;;27.02;15.02;;;12.10;99.90;;;;;;5035930;28;20104;-71
2023/05/12 00:56:38;;;;;;;22.13;14.60;;;12.10;99.90;;;;;;5046387;28;20512;-71
2023/05/12 00:59:04;;;;;;;25.17;15.65;;;12.10;99.90;;;;;;5056304;28;20401;-71
2023/05/12 01:01:31;;;;;;;29.77;16.52;;;12.10;99.90;;;;;;5055016;28;20049;-70
2023/05/12 01:03:56;;;;;;;25.63;16.10;;;12.10;99.90;;;;;;5055417;28;20049;-71
2023/05/12 01:06:42;;;;;;;24.88;15.40;;;12.10;99.90;;;;;;5045263;28;20041;-71
2023/05/12 01:09:08;;;;;;;26.88;16.08;;;12.10;99.90;;;;;;5036390;28;20061;-71
2023/05/12 01:11:33;;;;;;;28.98;16.90;;;12.10;99.90;;;;;;5046782;28;20083;-71
2023/05/12 01:13:59;;;;;;;32.38;17.20;;;12.10;99.90;;;;;;5035129;28;20489;-71
2023/05/12 01:16:33;;;;;;;28.83;17.50;;;12.10;99.90;;;;;;5042733;28;20052;-71
2023/05/12 01:19:03;;;;;;;28.42;16.77;;;12.10;99.90;;;;;;5054653;28;20080;-71
2023/05/12 01:21:29;;;;;;;31.85;18.77;;;12.20;99.90;;;;;;5054662;28;20052;-71
2023/05/12 01:23:58;;;;;;;32.13;17.80;;;12.20;99.90;;;;;;5054563;28;20037;-71
2023/05/12 01:26:24;;;;;;;33.10;20.15;;;12.20;99.90;;;;;;5046308;28;20046;-71
2023/05/12 01:28:51;;;;;;;30.55;18.55;;;12.20;99.90;;;;;;5035912;28;20060;-71
2023/05/12 01:31:17;;;;;;;35.40;18.52;;;12.20;99.90;;;;;;5049047;28;20041;-70
2023/05/12 01:33:42;;;;;;;33.25;19.35;;;12.30;99.90;;;;;;5071068;28;20052;-71
2023/05/12 01:36:08;;;;;;;28.67;18.65;;;12.30;99.90;;;;;;5054760;28;20059;-71
2023/05/12 01:38:33;;;;;;;35.35;19.27;;;12.30;99.90;;;;;;5054325;28;20378;-71
2023/05/12 01:40:59;;;;;;;32.50;17.98;;;12.30;99.90;;;;;;5054649;28;20049;-70
2023/05/12 01:43:25;;;;;;;28.13;18.10;;;12.30;99.90;;;;;;5053421;28;20041;-71
2023/05/12 01:45:50;;;;;;;29.70;18.33;;;12.40;99.90;;;;;;5052706;28;20085;-71
2023/05/12 01:48:16;;;;;;;31.75;19.20;;;12.40;99.90;;;;;;5052738;28;20041;-71
2023/05/12 01:50:41;;;;;;;33.17;21.35;;;12.40;99.90;;;;;;5049166;28;20041;-70
2023/05/12 01:53:09;;;;;;;34.40;20.20;;;12.40;99.90;;;;;;5039813;28;20064;-72
2023/05/12 01:55:35;;;;;;;32.42;20.42;;;12.40;99.90;;;;;;5038583;28;20485;-71
2023/05/12 01:58:01;;;;;;;30.55;19.50;;;12.30;99.90;;;;;;5050696;28;20461;-71
2023/05/12 02:00:26;;;;;;;32.03;21.05;;;12.40;99.90;;;;;;5041139;28;20207;-71
2023/05/12 02:02:52;;;;;;;32.53;20.60;;;12.40;99.90;;;;;;5053912;28;20082;-71
2023/05/12 02:05:17;;;;;;;36.20;21.42;;;12.40;99.90;;;;;;5052056;28;20116;-71
2023/05/12 02:07:43;;;;;;;34.75;20.98;;;12.40;99.90;;;;;;5053231;28;20534;-71
2023/05/12 02:10:09;;;;;;;34.75;21.45;;;12.40;99.90;;;;;;5044849;28;20056;-71
2023/05/12 02:12:34;;;;;;;35.40;22.20;;;12.40;99.90;;;;;;5054027;28;20037;-71
2023/05/12 02:15:00;;;;;;;36.05;20.83;;;12.40;99.90;;;;;;5048013;28;20121;-71
2023/05/12 02:17:27;;;;;;;36.78;22.88;;;12.40;99.90;;;;;;5048470;28;20075;-71
2023/05/12 02:19:53;;;;;;;34.03;21.05;;;12.40;99.90;;;;;;5037012;28;20037;-71
2023/05/12 02:22:18;;;;;;;35.00;21.42;;;12.40;99.90;;;;;;5051649;28;21097;-71
2023/05/12 02:24:44;;;;;;;31.33;20.92;;;12.40;99.90;;;;;;5050285;28;20111;-71
2023/05/12 02:27:09;;;;;;;31.33;21.30;;;12.40;99.90;;;;;;5047292;28;20030;-71
2023/05/12 02:29:36;;;;;;;32.47;21.90;;;12.50;99.90;;;;;;5048888;28;20088;-71
2023/05/12 02:32:02;;;;;;;31.30;20.75;;;12.40;99.90;;;;;;5044005;28;20051;-71
2023/05/12 02:34:28;;;;;;;35.05;22.52;;;12.50;99.90;;;;;;5045726;28;20041;-71
2023/05/12 02:36:54;;;;;;;31.42;20.20;;;12.50;99.90;;;;;;5028363;28;20037;-71
2023/05/12 02:39:19;;;;;;;35.42;21.90;;;12.50;99.90;;;;;;5036995;28;20565;-71
2023/05/12 02:41:45;;;;;;;32.65;21.65;;;12.50;99.90;;;;;;5041276;28;20114;-71
2023/05/12 02:44:11;;;;;;;34.40;22.10;;;12.50;99.90;;;;;;5035787;28;20477;-71
2023/05/12 02:46:36;;;;;;;33.00;21.75;;;12.50;99.90;;;;;;5045158;28;20075;-71
2023/05/12 02:49:03;;;;;;;35.25;23.33;;;12.50;99.90;;;;;;5051194;28;20100;-72
2023/05/12 02:51:29;;;;;;;34.80;22.42;;;12.50;99.90;;;;;;5050892;28;20045;-70
2023/05/12 02:53:54;;;;;;;35.33;21.73;;;12.50;99.90;;;;;;5045727;28;20048;-70
2023/05/12 02:56:21;;;;;;;36.60;23.17;;;12.50;99.90;;;;;;5034750;28;20123;-70
2023/05/12 02:58:47;;;;;;;34.80;22.17;;;12.50;99.90;;;;;;5047179;28;20560;-71
2023/05/12 03:01:13;;;;;;;33.35;21.20;;;12.40;99.90;;;;;;5036909;28;20124;-71
2023/05/12 03:03:39;;;;;;;36.08;22.50;;;12.40;99.90;;;;;;5056575;28;20476;-71
2023/05/12 03:06:05;;;;;;;40.63;23.58;;;12.50;99.90;;;;;;5066484;28;20091;-71
2023/05/12 03:08:31;;;;;;;36.95;22.92;;;12.50;99.90;;;;;;5052878;28;20037;-70
2023/05/12 03:10:56;;;;;;;39.25;24.92;;;12.40;99.90;;;;;;5050689;28;20101;-71
2023/05/12 03:13:22;;;;;;;38.20;23.17;;;12.40;99.90;;;;;;5044847;28;20044;-71
2023/05/12 03:15:48;;;;;;;36.97;23.73;;;12.40;99.90;;;;;;5035792;28;20577;-71
2023/05/12 03:18:13;;;;;;;40.08;23.65;;;12.40;99.90;;;;;;5041925;28;20048;-71
2023/05/12 03:20:39;;;;;;;39.60;24.00;;;12.40;99.90;;;;;;5038425;28;20040;-71
2023/05/12 03:23:04;;;;;;;37.95;24.80;;;12.40;99.90;;;;;;5052868;28;20037;-70
2023/05/12 03:25:30;;;;;;;41.60;25.15;;;12.30;99.90;;;;;;5053584;28;20041;-70
2023/05/12 03:27:56;;;;;;;41.88;26.67;;;12.40;99.90;;;;;;5034534;28;20040;-71
2023/05/12 03:30:21;;;;;;;41.30;25.00;;;12.40;99.90;;;;;;5044810;28;20600;-71
2023/05/12 03:32:47;;;;;;;42.15;25.88;;;12.40;99.90;;;;;;5047278;28;20040;-71
2023/05/12 03:35:13;;;;;;;44.22;25.85;;;12.40;99.90;;;;;;5053563;28;20135;-70
2023/05/12 03:37:38;;;;;;;39.30;24.38;;;12.40;99.90;;;;;;5051962;28;20507;-71
2023/05/12 03:40:05;;;;;;;43.30;25.50;;;12.40;99.90;;;;;;5050663;28;20557;-71
2023/05/12 03:42:30;;;;;;;42.15;25.83;;;12.40;99.90;;;;;;5048685;28;20028;-71
2023/05/12 03:44:56;;;;;;;45.35;26.85;;;12.30;99.90;;;;;;5035799;28;20441;-71
2023/05/12 03:47:22;;;;;;;42.25;24.58;;;12.30;99.90;;;;;;5032665;28;20037;-71
2023/05/12 03:49:47;;;;;;;37.38;24.80;;;12.30;99.90;;;;;;5043021;28;20176;-71
2023/05/12 03:52:13;;;;;;;42.10;25.10;;;12.40;99.90;;;;;;5048877;28;20144;-71
2023/05/12 03:54:38;;;;;;;39.80;24.33;;;12.40;99.90;;;;;;5045008;28;20083;-71
2023/05/12 03:57:04;;;;;;;37.40;23.13;;;12.40;99.90;;;;;;5045883;28;20037;-71
2023/05/12 03:59:31;;;;;;;41.20;23.73;;;12.50;99.90;;;;;;5035279;28;20042;-72
2023/05/12 04:01:56;;;;;;;39.78;24.40;;;12.50;99.90;;;;;;5046895;28;20041;-71
2023/05/12 04:04:22;;;;;;;41.17;25.02;;;12.40;99.90;;;;;;5034693;28;20037;-71
2023/05/12 04:06:48;;;;;;;40.08;24.15;;;12.40;99.90;;;;;;5032354;28;20401;-71
2023/05/12 04:09:15;;;;;;;38.90;24.55;;;12.40;99.90;;;;;;5044078;28;20065;-72
2023/05/12 04:11:41;;;;;;;36.83;25.08;;;12.40;99.90;;;;;;5057766;28;20072;-72
2023/05/12 04:14:06;;;;;;;40.22;24.83;;;12.40;99.90;;;;;;5043293;28;20084;-71
2023/05/12 04:16:34;;;;;;;38.70;23.80;;;12.40;99.90;;;;;;5042221;28;21058;-71
2023/05/12 04:19:00;;;;;;;39.00;24.27;;;12.40;99.90;;;;;;5048379;28;20040;-71
2023/05/12 04:21:26;;;;;;;35.53;22.85;;;12.40;99.90;;;;;;5047508;28;20517;-71
2023/05/12 04:23:51;;;;;;;39.20;23.65;;;12.40;99.90;;;;;;5051728;28;20029;-71
2023/05/12 04:26:17;;;;;;;39.50;23.52;;;12.40;99.90;;;;;;5040449;28;20051;-72
2023/05/12 04:28:42;;;;;;;37.47;24.45;;;12.40;99.90;;;;;;5053411;28;20124;-71
2023/05/12 04:31:08;;;;;;;38.80;23.83;;;12.40;99.90;;;;;;5033782;28;20063;-72
2023/05/12 04:33:34;;;;;;;42.03;23.75;;;12.40;99.90;;;;;;5050576;28;20037;-71
2023/05/12 04:35:59;;;;;;;37.92;24.23;;;12.40;99.90;;;;;;5041857;28;20041;-71
2023/05/12 04:38:26;;;;;;;37.95;23.35;;;12.40;99.90;;;;;;5042315;28;20408;-72
2023/05/12 04:40:59;;;;;;;39.20;24.08;;;12.40;99.90;;;;;;5037314;28;20045;-71
2023/05/12 04:43:25;;;;;;;37.85;24.30;;;12.40;99.90;;;;;;5031529;28;20432;-71
2023/05/12 04:45:53;;;;;;;36.83;23.10;;;12.50;99.90;;;;;;5047338;28;20068;-72
2023/05/12 04:48:18;;;;;;;38.70;24.05;;;12.50;99.90;;;;;;5045706;28;20124;-71
2023/05/12 04:50:44;;;;;;;41.17;24.70;;;12.50;99.90;;;;;;5040037;28;20112;-72
2023/05/12 04:53:10;;;;;;;41.47;25.08;;;12.50;99.90;;;;;;5047335;28;20061;-71
2023/05/12 04:55:36;;;;;;;42.58;24.42;;;12.50;99.90;;;;;;5044059;28;20045;-72
2023/05/12 04:58:02;;;;;;;40.08;25.08;;;12.50;99.90;;;;;;5051382;28;20041;-71
2023/05/12 05:00:28;;;;;;;36.47;24.17;;;12.50;99.90;;;;;;5044413;28;20535;-71
2023/05/12 05:02:53;;;;;;;42.35;23.85;;;12.50;99.90;;;;;;5046503;28;20056;-71
2023/05/12 05:05:19;;;;;;;42.75;24.88;;;12.50;99.90;;;;;;5035621;28;20087;-71
2023/05/12 05:07:44;;;;;;;41.45;25.55;;;12.60;99.90;;;;;;5050329;28;20033;-72
2023/05/12 05:10:10;;;;;;;41.97;25.65;;;12.60;99.90;;;;;;5051192;28;20378;-71
2023/05/12 05:12:35;;;;;;;39.88;24.33;;;12.60;99.90;;;;;;5051635;28;20040;-71
2023/05/12 05:15:01;;;;;;;39.40;24.73;;;12.60;99.90;;;;;;5033111;28;20676;-71
2023/05/12 05:17:27;;;;;;;40.83;23.52;;;12.60;99.90;;;;;;5046918;28;20567;-71
2023/05/12 05:19:52;;;;;;;35.20;23.50;;;12.60;99.90;;;;;;5046253;28;20060;-71
2023/05/12 05:22:18;;;;;;;41.33;24.83;;;12.60;99.90;;;;;;5049243;28;20477;-71
2023/05/12 05:24:44;;;;;;;40.67;24.40;;;12.60;99.90;;;;;;5053072;28;20393;-71
2023/05/12 05:27:09;;;;;;;38.35;24.58;;;12.60;99.90;;;;;;5052850;28;20033;-71
2023/05/12 05:29:35;;;;;;;36.50;24.05;;;12.60;99.90;;;;;;5043626;28;20044;-71
2023/05/12 05:32:00;;;;;;;38.70;23.80;;;12.60;99.90;;;;;;5025339;28;20432;-71
2023/05/12 05:34:26;;;;;;;41.75;24.70;;;12.60;99.90;;;;;;5042173;28;20411;-71
2023/05/12 05:36:51;;;;;;;39.97;23.65;;;12.60;99.90;;;;;;5050274;28;20063;-71
2023/05/12 05:39:17;;;;;;;36.53;23.20;;;12.70;99.90;;;;;;5041762;28;20053;-72
2023/05/12 05:41:43;;;;;;;36.38;23.15;;;12.70;99.90;;;;;;5052826;28;20068;-72
2023/05/12 05:44:08;;;;;;;38.08;24.45;;;12.80;99.90;;;;;;5052344;28;20045;-71
2023/05/12 05:46:34;;;;;;;37.78;23.65;;;12.80;99.90;;;;;;5053504;28;20037;-71
2023/05/12 05:48:59;;;;;;;42.25;25.15;;;12.80;99.90;;;;;;5046546;28;20072;-71
2023/05/12 05:51:25;;;;;;;38.60;25.73;;;12.80;99.90;;;;;;5051969;28;21157;-71
2023/05/12 05:53:50;;;;;;;37.85;25.73;;;12.80;99.90;;;;;;5048636;28;20045;-71
2023/05/12 05:56:16;;;;;;;42.97;26.60;;;12.70;99.90;;;;;;5041643;28;20038;-71
2023/05/12 05:58:41;;;;;;;39.95;24.65;;;12.80;99.90;;;;;;5051586;28;20120;-71
2023/05/12 06:01:07;;;;;;;39.45;23.55;;;12.70;99.90;;;;;;5044867;28;20044;-71
2023/05/12 06:03:32;;;;;;;39.78;23.60;;;12.70;99.90;;;;;;5045116;28;20041;-72
2023/05/12 06:05:58;;;;;;;38.72;24.00;;;12.80;99.90;;;;;;5037786;28;20072;-71
2023/05/12 06:08:24;;;;;;;40.47;25.27;;;12.80;99.90;;;;;;5045657;28;20533;-71
2023/05/12 06:10:49;;;;;;;38.92;25.63;;;12.80;99.90;;;;;;5044489;28;20083;-71
2023/05/12 06:13:15;;;;;;;37.88;23.92;;;12.70;99.90;;;;;;5053177;28;20100;-71
2023/05/12 06:15:40;;;;;;;41.38;24.70;;;12.80;99.90;;;;;;5036850;28;20087;-71
2023/05/12 06:18:06;;;;;;;38.10;23.40;;;12.90;99.90;;;;;;5049682;28;20043;-71
2023/05/12 06:20:32;;;;;;;37.30;24.70;;;12.90;99.90;;;;;;5037448;28;20043;-71
2023/05/12 06:22:57;;;;;;;35.13;22.92;;;12.80;99.90;;;;;;5038938;28;20033;-71
2023/05/12 06:25:23;;;;;;;31.67;21.60;;;12.90;99.90;;;;;;5026530;28;20041;-71
2023/05/12 06:27:52;;;;;;;32.05;21.48;;;12.90;99.90;;;;;;5036372;28;20098;-71
2023/05/12 06:30:17;;;;;;;31.88;21.30;;;12.90;99.90;;;;;;5048451;28;20052;-71
2023/05/12 06:32:43;;;;;;;30.30;21.30;;;13.00;99.90;;;;;;5033959;28;20060;-71
2023/05/12 06:35:09;;;;;;;34.67;22.88;;;13.00;99.90;;;;;;5043054;28;20497;-71
2023/05/12 06:37:34;;;;;;;32.90;23.13;;;13.00;99.90;;;;;;5049826;28;20052;-71
2023/05/12 06:40:00;;;;;;;32.63;21.77;;;13.10;99.90;;;;;;5049112;28;20044;-70
2023/05/12 06:42:25;;;;;;;31.25;21.08;;;13.10;99.90;;;;;;5054529;28;20044;-71
2023/05/12 06:44:51;;;;;;;36.42;23.25;;;13.10;99.90;;;;;;5044072;28;20026;-71
2023/05/12 06:47:16;;;;;;;32.95;22.70;;;13.10;99.90;;;;;;5041313;28;20087;-71
2023/05/12 06:49:42;;;;;;;34.90;23.98;;;13.10;99.90;;;;;;5050096;28;20511;-72
2023/05/12 06:52:08;;;;;;;41.92;25.67;;;13.10;99.90;;;;;;5046738;28;20057;-72
2023/05/12 06:54:33;;;;;;;39.92;26.35;;;13.10;99.90;;;;;;5050053;28;20106;-71
2023/05/12 06:56:59;;;;;;;38.75;25.55;;;13.00;99.90;;;;;;5047639;28;20048;-71
2023/05/12 06:59:24;;;;;;;39.72;25.20;;;13.00;99.90;;;;;;5045209;28;20085;-71
2023/05/12 07:01:50;;;;;;;37.05;24.10;;;12.90;99.90;;;;;;5050694;28;20120;-71
2023/05/12 07:04:16;;;;;;;41.10;25.20;;;13.00;99.90;;;;;;5052481;28;20495;-71
2023/05/12 07:06:41;;;;;;;39.30;24.65;;;13.00;99.90;;;;;;5050214;28;20040;-71
2023/05/12 07:09:07;;;;;;;38.05;24.95;;;13.00;99.90;;;;;;5051132;28;20049;-71
2023/05/12 07:11:32;;;;;;;38.92;26.60;;;13.00;99.90;;;;;;5048423;28;20055;-72
2023/05/12 07:13:58;;;;;;;35.28;24.08;;;12.90;99.90;;;;;;5047995;28;20037;-71
2023/05/12 07:16:24;;;;;;;33.97;22.60;;;13.00;99.90;;;;;;5036486;28;20033;-72
2023/05/12 07:18:49;;;;;;;37.92;24.85;;;13.00;99.90;;;;;;5040301;28;20038;-79
2023/05/12 07:21:15;;;;;;;37.63;24.63;;;13.00;99.90;;;;;;5036639;28;20037;-78
2023/05/12 07:23:41;;;;;;;40.13;24.50;;;13.00;99.90;;;;;;5053288;28;20082;-75
2023/05/12 07:26:06;;;;;;;34.95;20.55;;;13.10;99.90;;;;;;5050321;28;20120;-75
2023/05/12 07:28:37;;;;;;;38.00;25.27;;;13.10;99.90;;;;;;5052102;28;20045;-74
2023/05/12 07:31:04;;;;;;;43.80;25.88;;;13.10;99.90;;;;;;5039367;28;20094;-71
2023/05/12 07:33:30;;;;;;;40.30;25.80;;;13.20;99.90;;;;;;5049367;28;20040;-78
2023/05/12 07:35:55;;;;;;;39.28;25.08;;;13.30;99.90;;;;;;5049685;28;20036;-71
2023/05/12 07:38:22;;;;;;;38.80;26.17;;;13.30;99.90;;;;;;5052223;28;20172;-71
2023/05/12 07:40:48;;;;;;;44.05;26.85;;;13.40;99.90;;;;;;5051330;28;20116;-71
2023/05/12 07:43:16;;;;;;;44.80;27.92;;;13.40;99.90;;;;;;5031863;28;20439;-71
2023/05/12 07:45:42;;;;;;;40.65;26.52;;;13.50;99.90;;;;;;5038045;28;20504;-71
2023/05/12 07:48:07;;;;;;;43.08;27.80;;;13.60;99.90;;;;;;5042813;28;20038;-71
2023/05/12 07:50:33;;;;;;;42.83;26.80;;;13.60;99.90;;;;;;5051177;28;20119;-71
2023/05/12 07:52:58;;;;;;;40.78;27.45;;;13.70;99.90;;;;;;5050353;28;20060;-71
2023/05/12 07:55:24;;;;;;;44.13;28.90;;;13.90;99.90;;;;;;5049565;28;20179;-71
2023/05/12 07:57:50;;;;;;;38.05;26.88;;;14.00;99.90;;;;;;5068075;28;20044;-71
2023/05/12 08:00:16;;;;;;;36.45;26.40;;;13.90;99.90;;;;;;5046512;28;20469;-70
2023/05/12 08:02:42;;;;;;;39.90;26.35;;;14.10;99.90;;;;;;5034499;28;20047;-71
2023/05/12 08:05:09;;;;;;;40.10;27.13;;;14.10;99.90;;;;;;5049141;28;20037;-71
2023/05/12 08:07:35;;;;;;;42.00;27.85;;;14.10;99.90;;;;;;5045508;28;20040;-71
2023/05/12 08:10:03;;;;;;;39.00;27.13;;;14.10;99.90;;;;;;5053110;28;20120;-72
2023/05/12 08:12:28;;;;;;;42.28;27.30;;;14.20;99.90;;;;;;5053168;28;20087;-71
2023/05/12 08:14:54;;;;;;;38.78;27.25;;;14.30;99.90;;;;;;5048880;28;20033;-71
2023/05/12 08:17:20;;;;;;;40.22;28.60;;;14.30;99.90;;;;;;5050681;28;20507;-71
2023/05/12 08:19:45;;;;;;;41.03;27.52;;;14.40;99.90;;;;;;5040980;28;20033;-71
2023/05/12 08:22:11;;;;;;;39.22;28.58;;;14.50;99.90;;;;;;5043176;28;20041;-71
2023/05/12 08:24:36;;;;;;;42.90;28.10;;;14.50;99.90;;;;;;5036801;28;20094;-71
2023/05/12 08:27:02;;;;;;;40.10;30.55;;;14.60;99.90;;;;;;5049343;28;20405;-71
2023/05/12 08:29:28;;;;;;;44.53;31.40;;;14.70;99.90;;;;;;5051487;28;20136;-71
2023/05/12 08:31:53;;;;;;;37.80;26.60;;;14.80;99.90;;;;;;5052960;28;20068;-71
2023/05/12 08:34:19;;;;;;;37.97;27.67;;;14.90;99.90;;;;;;5052898;28;20525;-71
2023/05/12 08:36:45;;;;;;;39.33;27.70;;;14.90;99.90;;;;;;5050784;28;20486;-71
2023/05/12 08:39:11;;;;;;;37.13;28.10;;;15.00;99.90;;;;;;5032921;28;20112;-71
2023/05/12 08:41:43;;;;;;;43.38;30.88;;;15.20;99.90;;;;;;5033517;28;20037;-71
2023/05/12 08:44:10;;;;;;;37.47;28.63;;;15.20;99.90;;;;;;5038186;28;20116;-71
2023/05/12 08:46:36;;;;;;;41.03;29.42;;;15.30;99.90;;;;;;5051634;28;20132;-71
2023/05/12 08:49:03;;;;;;;42.20;31.95;;;15.40;99.90;;;;;;5049419;28;20541;-71
2023/05/12 08:51:31;;;;;;;39.53;31.33;;;15.50;99.90;;;;;;5041782;28;20057;-71
2023/05/12 08:53:57;;;;;;;42.03;31.15;;;15.60;99.90;;;;;;5042454;28;20382;-71
2023/05/12 08:56:24;;;;;;;40.92;30.73;;;15.60;99.90;;;;;;5049501;28;20029;-71
2023/05/12 08:58:50;;;;;;;41.47;31.05;;;15.70;99.90;;;;;;5043805;28;20052;-71
2023/05/12 09:01:17;;;;;;;40.30;31.33;;;15.80;99.90;;;;;;5049935;28;20033;-71
2023/05/12 09:03:43;;;;;;;35.13;28.98;;;15.80;99.90;;;;;;5047116;28;20041;-71
2023/05/12 09:06:10;;;;;;;32.47;26.50;;;15.90;99.90;;;;;;5047288;28;20044;-71
2023/05/12 09:08:36;;;;;;;35.10;29.98;;;16.00;99.90;;;;;;5035712;28;20076;-71
2023/05/12 09:11:02;;;;;;;35.05;28.88;;;16.20;99.90;;;;;;5026729;28;20072;-71
2023/05/12 09:14:03;;;;;;;34.90;27.48;;;16.20;99.90;;;;;;5042871;28;20037;-71
2023/05/12 09:16:32;;;;;;;32.65;27.75;;;16.30;99.90;;;;;;5001648;28;20125;-71
2023/05/12 09:18:59;;;;;;;33.70;28.17;;;16.40;99.90;;;;;;5042432;28;20088;-71
2023/05/12 09:21:26;;;;;;;33.25;28.60;;;16.50;99.90;;;;;;5026742;28;20041;-71
2023/05/12 09:23:54;;;;;;;31.52;26.67;;;16.60;99.90;;;;;;5035748;28;20073;-71
2023/05/12 09:26:21;;;;;;;33.05;27.90;;;16.70;99.90;;;;;;5051807;28;20044;-72
2023/05/12 09:28:47;;;;;;;30.67;25.92;;;16.80;99.90;;;;;;5050968;28;20375;-72
2023/05/12 09:31:17;;;;;;;31.75;26.80;;;16.80;99.90;;;;;;5040286;28;20049;-71
2023/05/12 09:33:43;;;;;;;29.85;24.83;;;16.90;99.90;;;;;;5047132;28;20047;-72
2023/05/12 09:36:09;;;;;;;28.52;24.85;;;17.00;99.90;;;;;;5051597;28;20116;-71
2023/05/12 09:38:35;;;;;;;30.27;26.38;;;17.10;99.90;;;;;;5054927;28;20397;-71
2023/05/12 09:41:00;;;;;;;30.67;24.80;;;17.10;99.90;;;;;;5041610;28;20037;-72
2023/05/12 09:43:26;;;;;;;29.10;25.90;;;17.20;99.90;;;;;;5035293;28;20410;-72
2023/05/12 09:45:52;;;;;;;31.33;24.05;;;17.20;99.90;;;;;;5039569;28;20037;-72
2023/05/12 09:48:17;;;;;;;32.75;27.17;;;17.40;99.90;;;;;;5041478;28;20037;-71
2023/05/12 09:50:51;;;;;;;29.98;26.17;;;17.40;99.90;;;;;;5040038;28;20444;-72
2023/05/12 09:53:19;;;;;;;30.15;26.35;;;17.40;99.90;;;;;;5052445;28;20462;-71
2023/05/12 09:55:46;;;;;;;29.58;26.38;;;17.50;99.90;;;;;;5050974;28;20090;-71
2023/05/12 09:58:15;;;;;;;27.02;24.13;;;17.50;99.90;;;;;;5043849;28;20537;-72
2023/05/12 10:00:41;;;;;;;28.75;24.88;;;17.60;99.90;;;;;;5053681;28;20078;-72
2023/05/12 10:03:10;;;;;;;27.15;22.90;;;17.80;99.90;;;;;;5046284;28;20025;-72
2023/05/12 10:05:48;;;;;;;31.30;25.58;;;17.80;99.90;;;;;;5036300;28;20072;-73
2023/05/12 10:08:21;;;;;;;28.17;24.13;;;17.90;99.90;;;;;;5033535;28;20087;-73
2023/05/12 10:10:49;;;;;;;26.83;22.55;;;18.00;99.90;;;;;;5033145;28;20390;-73
2023/05/12 10:13:15;;;;;;;25.30;21.58;;;18.10;99.90;;;;;;5018768;28;20034;-72
2023/05/12 10:15:42;;;;;;;27.45;23.10;;;18.20;99.90;;;;;;5053326;28;20116;-73
2023/05/12 10:18:08;;;;;;;27.48;22.60;;;18.30;99.90;;;;;;5052825;28;20206;-72
2023/05/12 10:20:35;;;;;;;27.83;23.90;;;18.50;99.90;;;;;;5053068;28;20032;-73
2023/05/12 10:23:01;;;;;;;24.95;21.98;;;18.50;99.90;;;;;;5049872;28;20037;-73
2023/05/12 10:25:27;;;;;;;25.60;22.80;;;18.60;99.90;;;;;;5034939;28;20037;-73
2023/05/12 10:27:54;;;;;;;26.42;23.50;;;18.80;99.90;;;;;;5049758;28;20489;-73
2023/05/12 10:30:21;;;;;;;25.00;22.27;;;18.80;99.90;;;;;;5034411;28;20121;-73
2023/05/12 10:32:46;;;;;;;28.60;25.55;;;18.90;99.90;;;;;;5049680;28;20128;-73
2023/05/12 10:35:13;;;;;;;27.48;23.30;;;18.90;99.90;;;;;;5033671;28;20124;-73
2023/05/12 10:37:41;;;;;;;27.67;24.70;;;19.10;99.90;;;;;;5040873;28;20041;-73
2023/05/12 10:40:07;;;;;;;28.42;25.42;;;19.10;99.90;;;;;;5034613;28;20085;-73
2023/05/12 10:42:38;;;;;;;27.33;24.05;;;19.20;99.90;;;;;;5048367;28;20036;-73
2023/05/12 10:45:16;;;;;;;24.27;21.58;;;19.20;99.90;;;;;;5054109;28;20081;-72
2023/05/12 10:47:43;;;;;;;24.83;20.92;;;19.30;99.90;;;;;;5051807;28;20033;-73
2023/05/12 10:50:12;;;;;;;20.67;17.98;;;19.50;99.90;;;;;;5047177;28;20033;-73
2023/05/12 10:52:39;;;;;;;22.30;17.45;;;19.60;99.90;;;;;;5033027;28;20061;-73
2023/05/12 10:55:09;;;;;;;19.95;17.88;;;19.70;99.90;;;;;;5038410;28;20053;-74
2023/05/12 10:57:48;;;;;;;21.23;17.75;;;19.70;99.90;;;;;;5050443;28;20037;-74
2023/05/12 11:00:14;;;;;;;18.08;15.70;;;19.60;99.90;;;;;;5052606;28;20060;-73
2023/05/12 11:02:49;;;;;;;22.70;19.75;;;19.70;99.90;;;;;;5052800;28;20469;-74
2023/05/12 11:05:15;;;;;;;18.52;15.52;;;19.70;99.90;;;;;;5035821;28;20116;-74
2023/05/12 11:07:46;;;;;;;16.35;13.55;;;19.90;99.90;;;;;;5035610;28;20037;-74
2023/05/12 11:10:12;;;;;;;17.55;14.88;;;20.00;99.90;;;;;;5040964;28;20489;-74
2023/05/12 11:12:38;;;;;;;21.55;17.83;;;20.10;99.90;;;;;;5041931;28;20041;-74
2023/05/12 11:15:04;;;;;;;18.33;15.50;;;20.10;99.90;;;;;;5039271;28;20526;-74
2023/05/12 11:17:30;;;;;;;18.17;16.08;;;20.20;99.90;;;;;;5037313;28;20497;-74
2023/05/12 11:19:56;;;;;;;16.63;14.48;;;20.30;99.90;;;;;;5065847;28;20065;-74
2023/05/12 11:22:23;;;;;;;16.38;13.45;;;20.40;99.90;;;;;;5048121;28;20509;-73
2023/05/12 11:24:49;;;;;;;16.15;13.13;;;20.40;99.90;;;;;;5049205;28;20037;-74
2023/05/12 11:27:17;;;;;;;16.25;12.77;;;20.60;99.90;;;;;;5049867;28;20036;-73
2023/05/12 11:29:45;;;;;;;13.20;11.80;;;20.60;99.90;;;;;;5041735;28;20045;-74
2023/05/12 11:32:14;;;;;;;15.48;10.55;;;20.60;99.90;;;;;;5049473;28;20045;-74
2023/05/12 11:34:40;;;;;;;15.50;13.40;;;20.70;99.90;;;;;;5052850;28;20045;-74
2023/05/12 11:37:06;;;;;;;15.63;13.20;;;20.70;99.90;;;;;;5053545;28;20409;-74
2023/05/12 11:39:32;;;;;;;14.73;12.13;;;20.80;99.90;;;;;;5051731;28;20127;-73
2023/05/12 11:42:06;;;;;;;12.55;9.82;;;20.70;99.90;;;;;;5053054;28;20123;-73
2023/05/12 11:44:32;;;;;;;12.32;9.95;;;20.80;99.90;;;;;;5052497;28;20040;-74
2023/05/12 11:47:05;;;;;;;13.68;11.50;;;20.80;99.90;;;;;;5039839;28;20033;-74
2023/05/12 11:49:31;;;;;;;10.73;8.93;;;20.70;99.90;;;;;;5054951;28;20049;-74
2023/05/12 11:52:01;;;;;;;13.07;10.35;;;20.70;99.90;;;;;;5044340;28;20057;-73
2023/05/12 11:54:28;;;;;;;13.70;9.13;;;20.60;99.90;;;;;;5052634;28;20482;-74
2023/05/12 11:56:54;;;;;;;11.88;9.63;;;20.60;99.90;;;;;;5043616;28;20041;-74
2023/05/12 11:59:33;;;;;;;12.75;10.20;;;20.60;99.90;;;;;;5033630;28;20077;-74
2023/05/12 12:02:01;;;;;;;12.02;8.60;;;20.60;99.90;;;;;;5053138;28;20384;-73
2023/05/12 12:04:39;;;;;;;11.13;9.00;;;20.70;99.90;;;;;;5046407;28;20046;-73
2023/05/12 12:07:05;;;;;;;10.70;7.97;;;20.80;99.90;;;;;;5050796;28;20043;-74
2023/05/12 12:09:36;;;;;;;11.65;7.70;;;20.70;99.90;;;;;;5051644;28;20508;-74
2023/05/12 12:12:04;;;;;;;10.18;6.72;;;20.80;99.90;;;;;;5046845;28;20043;-74
2023/05/12 12:14:31;;;;;;;11.95;7.88;;;20.80;99.90;;;;;;5049179;28;20049;-74
2023/05/12 12:16:57;;;;;;;9.15;5.82;;;20.80;99.90;;;;;;5038804;28;20041;-74
2023/05/12 12:19:24;;;;;;;7.50;5.63;;;20.80;99.90;;;;;;5033987;28;20049;-85
2023/05/12 12:21:49;;;;;;;7.93;5.03;;;20.90;99.90;;;;;;5048214;28;20037;-74
2023/05/12 12:24:16;;;;;;;8.68;5.32;;;20.90;99.90;;;;;;5040130;28;20181;-74